sensor_id;sensor_type;location;lat;lon;timestamp;P1;durP1;ratioP1;P2;durP2;ratioP2
76604;SDS011;65496;50.978;16.998;2022-11-23T16:50:49;17.35;;;13.48;;
76604;SDS011;65496;50.978;16.998;2022-11-23T16:53:15;16.13;;;12.50;;
76604;SDS011;65496;50.978;16.998;2022-11-23T16:55:44;16.17;;;13.18;;
76604;SDS011;65496;50.978;16.998;2022-11-23T16:58:16;16.80;;;12.80;;
76604;SDS011;65496;50.978;16.998;2022-11-23T17:00:43;15.73;;;12.95;;
76604;SDS011;65496;50.978;16.998;2022-11-23T17:03:16;18.40;;;14.07;;
76604;SDS011;65496;50.978;16.998;2022-11-23T17:05:44;17.70;;;12.55;;
76604;SDS011;65496;50.978;16.998;2022-11-23T17:08:11;16.85;;;13.15;;
76604;SDS011;65496;50.978;16.998;2022-11-23T17:10:38;16.67;;;13.38;;
76604;SDS011;65496;50.978;16.998;2022-11-23T17:13:05;18.95;;;13.93;;
76604;SDS011;65496;50.978;16.998;2022-11-23T17:15:36;15.95;;;12.80;;
76604;SDS011;65496;50.978;16.998;2022-11-23T17:18:03;18.27;;;12.88;;
76604;SDS011;65496;50.978;16.998;2022-11-23T17:20:29;16.98;;;13.15;;
76604;SDS011;65496;50.978;16.998;2022-11-23T17:22:55;16.83;;;12.63;;
76604;SDS011;65496;50.978;16.998;2022-11-23T17:25:25;20.70;;;15.32;;
76604;SDS011;65496;50.978;16.998;2022-11-23T17:27:52;17.05;;;12.77;;
76604;SDS011;65496;50.978;16.998;2022-11-23T17:30:19;17.90;;;14.75;;
76604;SDS011;65496;50.978;16.998;2022-11-23T17:32:49;17.15;;;13.32;;
76604;SDS011;65496;50.978;16.998;2022-11-23T17:35:15;17.60;;;12.65;;
76604;SDS011;65496;50.978;16.998;2022-11-23T17:37:42;16.70;;;12.95;;
76604;SDS011;65496;50.978;16.998;2022-11-23T17:40:18;17.20;;;13.05;;
76604;SDS011;65496;50.978;16.998;2022-11-23T17:42:49;21.63;;;16.20;;
76604;SDS011;65496;50.978;16.998;2022-11-23T17:45:15;19.05;;;13.73;;
76604;SDS011;65496;50.978;16.998;2022-11-23T17:47:42;20.00;;;14.48;;
76604;SDS011;65496;50.978;16.998;2022-11-23T17:50:18;19.63;;;14.60;;
76604;SDS011;65496;50.978;16.998;2022-11-23T17:53:10;20.23;;;14.65;;
76604;SDS011;65496;50.978;16.998;2022-11-23T17:55:37;17.90;;;14.02;;
76604;SDS011;65496;50.978;16.998;2022-11-23T17:58:06;21.67;;;14.32;;
76604;SDS011;65496;50.978;16.998;2022-11-23T18:00:36;19.73;;;14.90;;
76604;SDS011;65496;50.978;16.998;2022-11-23T18:03:03;20.20;;;15.05;;
76604;SDS011;65496;50.978;16.998;2022-11-23T18:05:30;20.70;;;14.63;;
76604;SDS011;65496;50.978;16.998;2022-11-23T18:07:58;19.90;;;14.20;;
76604;SDS011;65496;50.978;16.998;2022-11-23T18:10:26;20.75;;;15.23;;
76604;SDS011;65496;50.978;16.998;2022-11-23T18:12:55;18.58;;;14.25;;
76604;SDS011;65496;50.978;16.998;2022-11-23T18:15:22;22.33;;;16.42;;
76604;SDS011;65496;50.978;16.998;2022-11-23T18:17:48;21.73;;;17.40;;
76604;SDS011;65496;50.978;16.998;2022-11-23T18:20:16;20.83;;;15.73;;
76604;SDS011;65496;50.978;16.998;2022-11-23T18:22:43;22.00;;;16.42;;
76604;SDS011;65496;50.978;16.998;2022-11-23T18:25:11;26.20;;;16.73;;
76604;SDS011;65496;50.978;16.998;2022-11-23T18:27:40;25.63;;;17.50;;
76604;SDS011;65496;50.978;16.998;2022-11-23T18:30:08;20.58;;;15.65;;
76604;SDS011;65496;50.978;16.998;2022-11-23T18:32:35;20.75;;;14.90;;
76604;SDS011;65496;50.978;16.998;2022-11-23T18:35:01;22.70;;;17.50;;
76604;SDS011;65496;50.978;16.998;2022-11-23T18:37:29;22.20;;;16.52;;
76604;SDS011;65496;50.978;16.998;2022-11-23T18:39:55;23.70;;;17.40;;
76604;SDS011;65496;50.978;16.998;2022-11-23T18:42:21;22.45;;;16.88;;
76604;SDS011;65496;50.978;16.998;2022-11-23T18:44:47;23.30;;;17.30;;
76604;SDS011;65496;50.978;16.998;2022-11-23T18:47:13;22.17;;;16.65;;
76604;SDS011;65496;50.978;16.998;2022-11-23T18:49:39;23.67;;;17.20;;
76604;SDS011;65496;50.978;16.998;2022-11-23T18:52:05;20.58;;;16.08;;
76604;SDS011;65496;50.978;16.998;2022-11-23T18:54:33;21.48;;;16.38;;
76604;SDS011;65496;50.978;16.998;2022-11-23T18:56:59;24.05;;;17.75;;
76604;SDS011;65496;50.978;16.998;2022-11-23T18:59:25;19.80;;;15.75;;
76604;SDS011;65496;50.978;16.998;2022-11-23T19:01:52;23.85;;;17.33;;
76604;SDS011;65496;50.978;16.998;2022-11-23T19:04:17;24.50;;;16.50;;
76604;SDS011;65496;50.978;16.998;2022-11-23T19:06:44;20.70;;;16.50;;
76604;SDS011;65496;50.978;16.998;2022-11-23T19:09:10;25.02;;;16.55;;
76604;SDS011;65496;50.978;16.998;2022-11-23T19:11:36;22.85;;;17.20;;
76604;SDS011;65496;50.978;16.998;2022-11-23T19:14:02;26.40;;;16.85;;
76604;SDS011;65496;50.978;16.998;2022-11-23T19:16:29;25.58;;;19.52;;
76604;SDS011;65496;50.978;16.998;2022-11-23T19:19:03;24.50;;;17.52;;
76604;SDS011;65496;50.978;16.998;2022-11-23T19:21:33;26.65;;;18.48;;
76604;SDS011;65496;50.978;16.998;2022-11-23T19:24:00;25.90;;;17.55;;
76604;SDS011;65496;50.978;16.998;2022-11-23T19:26:28;26.30;;;18.88;;
76604;SDS011;65496;50.978;16.998;2022-11-23T19:28:55;25.77;;;19.27;;
76604;SDS011;65496;50.978;16.998;2022-11-23T19:31:23;23.65;;;17.95;;
76604;SDS011;65496;50.978;16.998;2022-11-23T19:33:51;26.67;;;19.30;;
76604;SDS011;65496;50.978;16.998;2022-11-23T19:36:21;24.48;;;18.33;;
76604;SDS011;65496;50.978;16.998;2022-11-23T19:38:48;27.40;;;19.53;;
76604;SDS011;65496;50.978;16.998;2022-11-23T19:41:16;25.75;;;19.33;;
76604;SDS011;65496;50.978;16.998;2022-11-23T19:43:43;25.42;;;18.55;;
76604;SDS011;65496;50.978;16.998;2022-11-23T19:46:10;29.92;;;20.17;;
76604;SDS011;65496;50.978;16.998;2022-11-23T19:48:38;23.67;;;19.15;;
76604;SDS011;65496;50.978;16.998;2022-11-23T19:51:05;31.73;;;20.75;;
76604;SDS011;65496;50.978;16.998;2022-11-23T19:53:35;28.02;;;20.23;;
76604;SDS011;65496;50.978;16.998;2022-11-23T19:56:09;26.83;;;19.30;;
76604;SDS011;65496;50.978;16.998;2022-11-23T19:58:37;28.42;;;20.67;;
76604;SDS011;65496;50.978;16.998;2022-11-23T20:01:04;26.45;;;19.05;;
76604;SDS011;65496;50.978;16.998;2022-11-23T20:03:35;28.17;;;21.17;;
76604;SDS011;65496;50.978;16.998;2022-11-23T20:06:04;24.20;;;18.27;;
76604;SDS011;65496;50.978;16.998;2022-11-23T20:08:34;25.77;;;19.17;;
76604;SDS011;65496;50.978;16.998;2022-11-23T20:11:08;25.52;;;19.30;;
76604;SDS011;65496;50.978;16.998;2022-11-23T20:13:35;27.83;;;20.75;;
76604;SDS011;65496;50.978;16.998;2022-11-23T20:16:09;24.00;;;18.73;;
76604;SDS011;65496;50.978;16.998;2022-11-23T20:18:37;27.08;;;19.15;;
76604;SDS011;65496;50.978;16.998;2022-11-23T20:21:08;31.00;;;20.70;;
76604;SDS011;65496;50.978;16.998;2022-11-23T20:23:36;25.50;;;18.58;;
76604;SDS011;65496;50.978;16.998;2022-11-23T20:26:03;28.77;;;20.67;;
76604;SDS011;65496;50.978;16.998;2022-11-23T20:28:29;34.55;;;24.85;;
76604;SDS011;65496;50.978;16.998;2022-11-23T20:31:01;37.08;;;25.25;;
76604;SDS011;65496;50.978;16.998;2022-11-23T20:33:28;35.90;;;25.98;;
76604;SDS011;65496;50.978;16.998;2022-11-23T20:36:05;34.88;;;25.75;;
76604;SDS011;65496;50.978;16.998;2022-11-23T20:38:41;38.22;;;27.35;;
76604;SDS011;65496;50.978;16.998;2022-11-23T20:43:38;34.05;;;25.30;;
76604;SDS011;65496;50.978;16.998;2022-11-23T20:48:22;32.55;;;22.88;;
76604;SDS011;65496;50.978;16.998;2022-11-23T20:50:48;31.67;;;23.63;;
76604;SDS011;65496;50.978;16.998;2022-11-23T20:53:14;32.60;;;23.08;;
76604;SDS011;65496;50.978;16.998;2022-11-23T20:55:41;32.13;;;21.35;;
76604;SDS011;65496;50.978;16.998;2022-11-23T20:58:07;31.75;;;22.92;;
76604;SDS011;65496;50.978;16.998;2022-11-23T21:00:33;31.38;;;22.70;;
76604;SDS011;65496;50.978;16.998;2022-11-23T21:02:59;31.60;;;22.55;;
76604;SDS011;65496;50.978;16.998;2022-11-23T21:05:26;33.83;;;23.38;;
76604;SDS011;65496;50.978;16.998;2022-11-23T21:07:52;30.05;;;22.30;;
76604;SDS011;65496;50.978;16.998;2022-11-23T21:10:18;34.35;;;23.45;;
76604;SDS011;65496;50.978;16.998;2022-11-23T21:13:02;36.83;;;23.83;;
76604;SDS011;65496;50.978;16.998;2022-11-23T21:15:47;32.75;;;23.30;;
76604;SDS011;65496;50.978;16.998;2022-11-23T21:18:13;35.85;;;24.98;;
76604;SDS011;65496;50.978;16.998;2022-11-23T21:20:39;33.72;;;24.52;;
76604;SDS011;65496;50.978;16.998;2022-11-23T21:23:07;37.42;;;25.85;;
76604;SDS011;65496;50.978;16.998;2022-11-23T21:25:34;37.80;;;25.13;;
76604;SDS011;65496;50.978;16.998;2022-11-23T21:28:00;37.08;;;24.10;;
76604;SDS011;65496;50.978;16.998;2022-11-23T21:30:28;36.92;;;24.05;;
76604;SDS011;65496;50.978;16.998;2022-11-23T21:32:55;32.70;;;23.48;;
76604;SDS011;65496;50.978;16.998;2022-11-23T21:35:22;35.10;;;24.38;;
76604;SDS011;65496;50.978;16.998;2022-11-23T21:37:48;35.55;;;23.23;;
76604;SDS011;65496;50.978;16.998;2022-11-23T21:40:14;36.45;;;23.27;;
76604;SDS011;65496;50.978;16.998;2022-11-23T21:42:40;35.03;;;23.65;;
76604;SDS011;65496;50.978;16.998;2022-11-23T21:45:06;32.97;;;23.65;;
76604;SDS011;65496;50.978;16.998;2022-11-23T21:47:32;38.20;;;24.90;;
76604;SDS011;65496;50.978;16.998;2022-11-23T21:50:00;30.92;;;21.95;;
76604;SDS011;65496;50.978;16.998;2022-11-23T21:52:26;31.55;;;22.85;;
76604;SDS011;65496;50.978;16.998;2022-11-23T21:54:52;32.30;;;23.50;;
76604;SDS011;65496;50.978;16.998;2022-11-23T21:57:18;29.60;;;22.13;;
76604;SDS011;65496;50.978;16.998;2022-11-23T21:59:44;32.75;;;22.85;;
76604;SDS011;65496;50.978;16.998;2022-11-23T22:02:10;30.77;;;22.13;;
76604;SDS011;65496;50.978;16.998;2022-11-23T22:04:54;31.15;;;21.08;;
76604;SDS011;65496;50.978;16.998;2022-11-23T22:07:20;32.42;;;22.58;;
76604;SDS011;65496;50.978;16.998;2022-11-23T22:09:46;35.38;;;23.27;;
76604;SDS011;65496;50.978;16.998;2022-11-23T22:12:12;29.65;;;21.65;;
76604;SDS011;65496;50.978;16.998;2022-11-23T22:14:38;27.75;;;21.17;;
76604;SDS011;65496;50.978;16.998;2022-11-23T22:17:04;31.20;;;21.02;;
76604;SDS011;65496;50.978;16.998;2022-11-23T22:19:30;34.45;;;22.42;;
76604;SDS011;65496;50.978;16.998;2022-11-23T22:21:56;32.20;;;22.08;;
76604;SDS011;65496;50.978;16.998;2022-11-23T22:24:22;27.90;;;20.05;;
76604;SDS011;65496;50.978;16.998;2022-11-23T22:26:48;27.90;;;19.45;;
76604;SDS011;65496;50.978;16.998;2022-11-23T22:29:14;28.38;;;21.65;;
76604;SDS011;65496;50.978;16.998;2022-11-23T22:31:41;29.70;;;20.98;;
76604;SDS011;65496;50.978;16.998;2022-11-23T22:34:09;27.50;;;19.00;;
76604;SDS011;65496;50.978;16.998;2022-11-23T22:36:36;25.88;;;20.73;;
76604;SDS011;65496;50.978;16.998;2022-11-23T22:39:03;30.98;;;22.17;;
76604;SDS011;65496;50.978;16.998;2022-11-23T22:41:31;27.42;;;20.75;;
76604;SDS011;65496;50.978;16.998;2022-11-23T22:44:04;29.08;;;20.52;;
76604;SDS011;65496;50.978;16.998;2022-11-23T22:46:32;26.70;;;19.65;;
76604;SDS011;65496;50.978;16.998;2022-11-23T22:48:58;25.70;;;19.08;;
76604;SDS011;65496;50.978;16.998;2022-11-23T22:51:25;29.45;;;20.67;;
76604;SDS011;65496;50.978;16.998;2022-11-23T22:53:53;25.90;;;19.60;;
76604;SDS011;65496;50.978;16.998;2022-11-23T22:56:20;27.00;;;19.40;;
76604;SDS011;65496;50.978;16.998;2022-11-23T22:58:47;25.70;;;18.08;;
76604;SDS011;65496;50.978;16.998;2022-11-23T23:01:14;26.52;;;19.23;;
76604;SDS011;65496;50.978;16.998;2022-11-23T23:03:41;28.00;;;19.85;;
76604;SDS011;65496;50.978;16.998;2022-11-23T23:06:17;27.92;;;18.98;;
76604;SDS011;65496;50.978;16.998;2022-11-23T23:08:45;27.65;;;20.50;;
76604;SDS011;65496;50.978;16.998;2022-11-23T23:11:13;27.88;;;18.30;;
76604;SDS011;65496;50.978;16.998;2022-11-23T23:13:39;24.70;;;18.60;;
76604;SDS011;65496;50.978;16.998;2022-11-23T23:16:07;26.15;;;18.23;;
76604;SDS011;65496;50.978;16.998;2022-11-23T23:18:36;25.83;;;18.55;;
76604;SDS011;65496;50.978;16.998;2022-11-23T23:21:09;26.65;;;18.77;;
76604;SDS011;65496;50.978;16.998;2022-11-23T23:23:39;24.42;;;17.70;;
76604;SDS011;65496;50.978;16.998;2022-11-23T23:26:08;24.13;;;17.10;;
76604;SDS011;65496;50.978;16.998;2022-11-23T23:28:34;21.75;;;16.85;;
76604;SDS011;65496;50.978;16.998;2022-11-23T23:31:02;22.85;;;16.83;;
76604;SDS011;65496;50.978;16.998;2022-11-23T23:33:29;25.52;;;18.40;;
76604;SDS011;65496;50.978;16.998;2022-11-23T23:38:33;23.85;;;17.88;;
76604;SDS011;65496;50.978;16.998;2022-11-23T23:41:00;22.45;;;16.13;;
76604;SDS011;65496;50.978;16.998;2022-11-23T23:43:27;21.13;;;16.58;;
76604;SDS011;65496;50.978;16.998;2022-11-23T23:45:57;22.40;;;15.95;;
76604;SDS011;65496;50.978;16.998;2022-11-23T23:48:29;22.98;;;16.75;;
76604;SDS011;65496;50.978;16.998;2022-11-23T23:50:56;22.33;;;16.75;;
76604;SDS011;65496;50.978;16.998;2022-11-23T23:53:22;22.58;;;17.77;;
76604;SDS011;65496;50.978;16.998;2022-11-23T23:55:58;22.42;;;17.25;;
76604;SDS011;65496;50.978;16.998;2022-11-23T23:58:27;23.88;;;17.00;;
